This is the latest recevied weather packets stored in our database for station/object LRBM. If no packets are shown the sender has not sent any weather packets the latest 10 day(s).
| Time | Temp. | Humidity | Pressure | Rain* | Wind** | Luminosity | Snow |
|---|---|---|---|---|---|---|---|
| 1788591815 | 25° C | 51% | 1015 hPa | - | - | - | - |
| 1788590916 | 22.78° C | 53% | 1015 hPa | - | - | - | - |
| 1788590016 | 22.78° C | 53% | 1015 hPa | - | - | - | - |
| 1788589116 | 22.22° C | 57% | 1015 hPa | - | - | - | - |
| 1788587316 | 21.11° C | 60% | 1015 hPa | - | - | - | - |
| 1788564816 | 17.22° C | 73% | 1016 hPa | - | - | - | - |
| 1788559416 | 17.22° C | 68% | 1016 hPa | - | - | - | - |
| 1788552235 | 18.89° C | 60% | 1016 hPa | - | - | - | - |
| 1788538716 | 25° C | 42% | 1016 hPa | - | - | - | - |
| 1788537815 | 25° C | 42% | 1016 hPa | - | - | - | - |
| 1788536017 | 27.22° C | 34% | 1016 hPa | - | - | - | - |
| 1788532416 | 27.22° C | 34% | 1016 hPa | - | - | - | - |
| 1788529716 | 26.11° C | 39% | 1017 hPa | - | - | - | - |
| 1788523416 | 26.11° C | 37% | 1017 hPa | - | - | - | - |
| 1788521616 | 26.11° C | 39% | 1017 hPa | - | - | - | - |
| 1788518961 | 25° C | 44% | 1018 hPa | - | - | - | - |
| 1788518084 | 25° C | 44% | 1018 hPa | - | - | - | - |
| 1788517121 | 25° C | 44% | 1018 hPa | - | - | - | - |
| 1788514416 | 23.89° C | 47% | 1018 hPa | - | - | - | - |
| 1788513515 | 22.78° C | 50% | 1019 hPa | - | - | - | - |
| 1788512615 | 22.78° C | 50% | 1019 hPa | - | - | - | - |
| 1788510816 | 22.78° C | 50% | 1018 hPa | - | - | - | - |
| 1788509918 | 22.78° C | 50% | 1018 hPa | - | - | - | - |
| 1788509016 | 22.78° C | 50% | 1018 hPa | - | - | - | - |
| 1788508194 | 22.22° C | 53% | 1018 hPa | - | - | - | - |
* Rain since midnight (hover to see other rain measurements)
** Current wind speed in m/s (hover to see current wind gust speed)